Bei Facebook empfehlenBei Twitter postenGoogle plusPinterest

Das Wetter im Erzgebirge am 18.06.2016

Wetter und Klima am 18.06.2016 Holzhau im Erzgebirge (630m ü.NN)
Letzte gemessene Temperatur und Uhrzeit der Messung23:45:00 Uhr9.40 °C
Temperatur (Maximum / Höchstwert) und Uhrzeit der Messung17:15:00 Uhr20.90 °C
Temperatur (Minimum / Tiefstwert) und Uhrzeit der Messung05:45:006.20 °C
Errechneter Absolutwert der Temperaturschwankungen zwischen Tmin und Tmax des Tages14.70 K
Errechnete Tagesmitteltemperatur13.65208 °C
Gesamt - Niederschlag des Tages (in flüssiger Form)6.74 Liter / m²
Luftdruck (Maximum / Höchstwert) und Zeitpunkt der Messung22:30:00 Uhr1015.20 hPa
Luftdruck (Minimum / Tiefstwert) und Zeitpunkt der Messung00:00:00 Uhr1010.00 hPa
Errechneter Absolutwert der Luftdruckschwankungen des Tages5.20 hPa
Höchste gemessene Windgeschwindigkeit und Uhrzeit der Messung23:45:00 Uhr0.00 km/h
Errechnete Windhäufigkeit in Relation zu den Messwerten des Tages0.00000 %
Niedrigste Windkühle (Windchill) und Zeitpunkt der Messung05:45:00 Uhr6.20 °C
Taupunkt (Maximum / Höchstwert) und Uhrzeit der Messung15:45:00 Uhr14.80 °C
Taupunkt (Minimum / Tiefstwert) und Uhrzeit der Messung05:45:005.20 °C
Anzahl der automatisch eingelesenen Messwerte 96

Detaillierte Wetter- und Klima- Messwerte für den 18.06.2016 in Holzhau im Erzgebirge (630m ü.NN)
ZeitTemperaturLuftdruckRel. LuftfeuchteWindWindrichtungWindchillTaupunktNiederschlag l/m²
23:45:009.40 °C1015.00 hPa91.00 %8.00 °C6.74
23:30:009.80 °C1015.10 hPa91.00 %8.40 °C6.74
23:15:0010.20 °C1015.00 hPa90.00 %8.60 °C6.74
23:00:0010.50 °C1015.00 hPa91.00 %9.10 °C6.74
22:45:0010.80 °C1015.10 hPa90.00 %9.20 °C6.74
22:30:0011.30 °C1015.20 hPa90.00 %9.70 °C6.74
22:15:0011.80 °C1015.10 hPa90.00 %10.20 °C6.74
22:00:0012.10 °C1014.80 hPa90.00 %10.50 °C6.74
21:45:0012.30 °C1014.80 hPa89.00 %10.50 °C6.74
21:30:0012.50 °C1014.50 hPa88.00 %10.60 °C6.74
21:15:0012.90 °C1014.30 hPa88.00 %11.00 °C6.74
21:00:0013.30 °C1014.50 hPa87.00 %11.20 °C6.74
20:45:0013.90 °C1014.30 hPa86.00 %11.60 °C6.74
20:30:0014.60 °C1014.10 hPa85.00 %12.10 °C6.74
20:15:0015.30 °C1014.00 hPa84.00 %12.60 °C6.74
20:00:0016.20 °C1013.90 hPa83.00 %13.30 °C6.74
19:45:0016.80 °C1013.70 hPa83.00 %13.90 °C6.74
19:30:0017.30 °C1013.60 hPa83.00 %14.40 °C6.74
19:15:0017.20 °C1013.70 hPa83.00 %14.30 °C6.74
19:00:0016.90 °C1013.50 hPa84.00 %14.20 °C6.74
18:45:0016.10 °C1013.80 hPa85.00 %13.60 °C6.74
18:30:0014.90 °C1013.60 hPa85.00 %12.40 °C6.74
18:15:0014.10 °C1013.60 hPa82.00 %11.10 °C6.74
18:00:0013.20 °C1013.80 hPa78.00 %9.50 °C6.74
17:45:0014.30 °C1014.20 hPa72.00 %9.30 °C6.22
17:30:0018.40 °C1013.60 hPa62.00 %11.00 °C1.56
17:15:0020.90 °C1012.60 hPa61.00 %13.10 °C1.56
17:00:0020.70 °C1012.60 hPa63.00 %13.40 °C1.56
16:45:0020.10 °C1012.70 hPa63.00 %12.80 °C1.56
16:30:0019.10 °C1012.70 hPa64.00 %12.10 °C1.56
16:15:0019.20 °C1013.00 hPa61.00 %11.50 °C1.04
16:00:0020.90 °C1012.70 hPa62.00 %13.40 °C1.04
15:45:0020.90 °C1012.50 hPa68.00 %14.80 °C1.04
15:30:0019.90 °C1012.80 hPa72.00 %14.70 °C1.04
15:15:0019.20 °C1013.00 hPa74.00 %14.50 °C1.04
15:00:0018.60 °C1013.10 hPa77.00 %14.50 °C1.04
14:45:0017.90 °C1013.10 hPa80.00 %14.40 °C1.04
14:30:0016.30 °C1013.20 hPa79.00 %12.70 °C1.04
14:15:0016.20 °C1013.30 hPa76.00 %12.00 °C1.04
14:00:0018.10 °C1013.40 hPa79.00 %14.40 °C1.04
13:45:0017.20 °C1013.00 hPa84.00 %14.50 °C1.04
13:30:0015.80 °C1013.20 hPa86.00 %13.50 °C1.04
13:15:0014.30 °C1013.30 hPa83.00 %11.50 °C1.04
13:00:0013.50 °C1013.40 hPa81.00 %10.30 °C1.04
12:45:0013.50 °C1013.30 hPa78.00 %9.70 °C1.04
12:30:0014.20 °C1013.40 hPa72.00 %9.20 °C1.04
12:15:0017.10 °C1013.40 hPa63.00 %10.00 °C1.04
12:00:0020.30 °C1013.10 hPa62.00 %12.80 °C 
11:45:0019.30 °C1013.20 hPa64.00 %12.30 °C 
11:30:0018.30 °C1013.20 hPa63.00 %11.10 °C 
11:15:0019.70 °C1013.30 hPa61.00 %12.00 °C 
11:00:0020.10 °C1013.10 hPa65.00 %13.30 °C 
10:45:0018.80 °C1013.10 hPa67.00 %12.50 °C 
10:30:0017.70 °C1012.90 hPa66.00 %11.30 °C 
10:15:0018.50 °C1012.80 hPa68.00 %12.50 °C 
10:00:0018.40 °C1012.90 hPa71.00 %13.10 °C 
09:45:0017.60 °C1012.90 hPa70.00 %12.10 °C 
09:30:0017.50 °C1012.70 hPa72.00 %12.40 °C 
09:15:0016.90 °C1012.60 hPa74.00 %12.20 °C 
09:00:0016.90 °C1012.60 hPa75.00 %12.40 °C 
08:45:0016.50 °C1012.50 hPa77.00 %12.50 °C 
08:30:0016.70 °C1012.50 hPa79.00 %13.00 °C 
08:15:0016.80 °C1012.30 hPa82.00 %13.70 °C 
08:00:0016.60 °C1012.20 hPa87.00 %14.40 °C 
07:45:0016.10 °C1012.30 hPa91.00 %14.60 °C 
07:30:0014.80 °C1012.20 hPa93.00 %13.70 °C 
07:15:0012.80 °C1011.90 hPa95.00 %12.00 °C 
07:00:009.60 °C1011.90 hPa94.00 %8.70 °C 
06:45:008.40 °C1011.70 hPa94.00 %7.50 °C 
06:30:007.60 °C1011.60 hPa94.00 %6.70 °C 
06:15:006.90 °C1011.60 hPa94.00 %6.00 °C 
06:00:006.40 °C1011.70 hPa94.00 %5.50 °C 
05:45:006.20 °C1011.70 hPa93.00 %5.20 °C 
05:30:006.20 °C1011.60 hPa93.00 %5.20 °C 
05:15:006.30 °C1011.50 hPa93.00 %5.30 °C 
05:00:006.40 °C1011.50 hPa93.00 %5.40 °C 
04:45:006.90 °C1011.50 hPa93.00 %5.80 °C 
04:30:007.30 °C1011.40 hPa93.00 %6.20 °C 
04:15:007.60 °C1011.30 hPa93.00 %6.50 °C 
04:00:007.80 °C1011.20 hPa93.00 %6.70 °C 
03:45:007.90 °C1011.30 hPa93.00 %6.80 °C 
03:30:008.20 °C1011.30 hPa93.00 %7.10 °C 
03:15:008.60 °C1011.10 hPa93.00 %7.50 °C 
03:00:008.90 °C1010.90 hPa93.00 %7.80 °C 
02:45:008.80 °C1010.80 hPa93.00 %7.70 °C 
02:30:008.70 °C1010.90 hPa92.00 %7.50 °C 
02:15:008.80 °C1010.80 hPa92.00 %7.60 °C 
02:00:008.70 °C1010.70 hPa92.00 %7.50 °C 
01:45:008.40 °C1010.60 hPa92.00 %7.20 °C 
01:30:007.90 °C1010.60 hPa92.00 %6.70 °C 
01:15:008.20 °C1010.60 hPa91.00 %6.80 °C 
01:00:008.10 °C1010.40 hPa91.00 %6.70 °C 
00:45:008.30 °C1010.40 hPa91.00 %6.90 °C 
00:30:008.60 °C1010.30 hPa91.00 %7.20 °C 
00:15:009.20 °C1010.30 hPa91.00 %7.80 °C 
00:00:009.70 °C1010.00 hPa90.00 %8.10 °C 

Permanenter Link zu dieser Seite: Wetter im Erzgebirge am 18.06.2016
Performance-Info: Die Erstellung der Seite / Statistik(en) / Tabelle(n) erforderte 5 Datenbankserver-Abfrage(n) und dauerte 102 Millisekunden. (Dieser Messwert ist von der Gesamt-Auslastung des Servers abhängig.)
Erzgebirge - Wetter | Erzgebirge - Wetter (Mobilgeräte) | Komplette Klimadatenbank